createdAt,value
2022-10-04T00:01:49.243Z,75.34
2022-10-04T00:07:16.896Z,75.41
2022-10-04T00:12:35.940Z,75.18
2022-10-04T00:17:39.174Z,75.06
2022-10-04T00:23:20.562Z,75.08
2022-10-04T00:28:26.359Z,75.13
2022-10-04T00:33:52.543Z,75.19
2022-10-04T00:39:16.819Z,75.28
2022-10-04T00:44:28.362Z,75.41
2022-10-04T00:49:41.257Z,75.50
2022-10-04T00:54:57.163Z,75.60
2022-10-04T01:00:08.714Z,75.91
2022-10-04T01:05:17.558Z,75.80
2022-10-04T01:10:27.607Z,75.78
2022-10-04T01:15:45.559Z,75.61
2022-10-04T01:20:48.403Z,75.68
2022-10-04T01:25:52.119Z,75.75
2022-10-04T01:30:55.161Z,75.92
2022-10-04T01:35:58.497Z,75.76
2022-10-04T01:41:05.083Z,75.96
2022-10-04T01:46:17.563Z,75.77
2022-10-04T01:51:28.850Z,75.75
2022-10-04T01:56:46.821Z,75.80
2022-10-04T02:02:09.357Z,75.83
2022-10-04T02:07:15.585Z,75.79
2022-10-04T02:12:20.034Z,75.67
2022-10-04T02:17:31.687Z,75.92
2022-10-04T02:22:34.708Z,76.08
2022-10-04T02:27:37.635Z,75.79
2022-10-04T02:33:02.786Z,75.76
2022-10-04T02:38:22.393Z,75.81
2022-10-04T02:43:39.652Z,75.71
2022-10-04T02:49:02.583Z,75.64
2022-10-04T02:54:52.838Z,75.55
2022-10-04T03:00:25.349Z,75.75
2022-10-04T03:05:28.995Z,75.61
2022-10-04T03:10:32.564Z,75.63
2022-10-04T03:15:35.738Z,75.91
2022-10-04T03:20:41.342Z,75.76
2022-10-04T03:26:02.014Z,75.71
2022-10-04T03:31:05.917Z,75.70
2022-10-04T03:36:18.314Z,75.77
2022-10-04T03:41:23.665Z,75.78
2022-10-04T03:46:28.426Z,75.97
2022-10-04T03:51:31.741Z,75.86
2022-10-04T03:56:37.031Z,75.53
2022-10-04T04:02:12.080Z,75.47
2022-10-04T04:07:29.326Z,75.90
2022-10-04T04:12:41.164Z,76.09
2022-10-04T04:17:50.807Z,76.14
2022-10-04T04:23:28.384Z,75.90
2022-10-04T04:28:43.453Z,76.25
2022-10-04T04:33:59.443Z,75.98
2022-10-04T04:39:44.953Z,76.38
2022-10-04T04:44:57.002Z,76.20
2022-10-04T04:50:16.621Z,76.02
2022-10-04T04:55:56.322Z,76.24
2022-10-04T05:01:02.015Z,76.31
2022-10-04T05:06:05.218Z,76.24
2022-10-04T05:11:08.449Z,76.44
2022-10-04T05:16:30.863Z,76.29
2022-10-04T05:21:38.617Z,76.67
2022-10-04T05:26:45.191Z,76.72
2022-10-04T05:32:06.454Z,76.52
2022-10-04T05:37:34.717Z,76.31
2022-10-04T05:42:46.726Z,76.39
2022-10-04T05:47:53.768Z,76.55
2022-10-04T05:53:36.378Z,76.49
2022-10-04T05:59:26.011Z,76.75
2022-10-04T06:04:44.491Z,76.69
2022-10-04T06:10:26.145Z,77.02
2022-10-04T06:16:22.880Z,77.31
2022-10-04T06:21:29.434Z,77.33
2022-10-04T06:26:56.564Z,77.20
2022-10-04T06:32:30.352Z,77.25
2022-10-04T06:37:42.122Z,77.33
2022-10-04T06:43:25.562Z,77.17
2022-10-04T06:48:55.365Z,76.79
2022-10-04T06:54:18.996Z,76.55
2022-10-04T06:59:52.784Z,76.05
2022-10-04T07:05:13.864Z,76.36
2022-10-04T07:10:51.592Z,76.07
2022-10-04T07:16:00.089Z,76.06
2022-10-04T07:21:12.954Z,76.22
2022-10-04T07:26:56.407Z,76.24
2022-10-04T07:32:14.051Z,76.32
2022-10-04T07:37:18.921Z,76.22
2022-10-04T07:42:55.134Z,76.26
2022-10-04T07:48:23.523Z,75.25
2022-10-04T07:54:26.917Z,75.14
2022-10-04T08:00:00.042Z,75.16
2022-10-04T08:05:09.305Z,74.38
2022-10-04T08:11:05.427Z,74.76
2022-10-04T08:16:55.242Z,75.29
2022-10-04T08:22:41.912Z,74.96
2022-10-04T08:28:09.350Z,74.33
2022-10-04T08:33:56.376Z,72.49
2022-10-04T08:39:01.236Z,73.10
2022-10-04T08:44:25.765Z,71.41
2022-10-04T08:49:59.173Z,71.26
2022-10-04T08:55:35.291Z,70.10
2022-10-04T09:01:15.267Z,70.42
2022-10-04T09:06:38.458Z,70.03
2022-10-04T09:11:41.689Z,70.02
2022-10-04T09:16:53.530Z,70.17
2022-10-04T09:21:56.353Z,69.55
2022-10-04T09:27:43.215Z,68.91
2022-10-04T09:33:17.324Z,69.10
2022-10-04T09:39:29.994Z,67.10
2022-10-04T09:45:21.535Z,68.26
2022-10-04T09:50:51.669Z,67.14
2022-10-04T09:56:27.055Z,67.09
2022-10-04T10:02:00.638Z,65.49
2022-10-04T10:07:39.880Z,65.63
2022-10-04T10:13:45.733Z,66.99
2022-10-04T10:19:29.500Z,67.21
2022-10-04T10:25:29.438Z,67.16
2022-10-04T10:31:29.349Z,67.61
2022-10-04T10:37:09.473Z,66.55
2022-10-04T10:42:59.944Z,66.27
2022-10-04T10:48:14.517Z,66.03
2022-10-04T10:53:30.193Z,65.03
2022-10-04T10:59:16.265Z,64.20
2022-10-04T11:05:15.819Z,64.60
2022-10-04T11:10:39.766Z,64.27
2022-10-04T11:16:26.946Z,63.98
2022-10-04T11:22:25.887Z,63.83
2022-10-04T11:28:20.168Z,62.61
2022-10-04T11:33:46.903Z,63.26
2022-10-04T11:39:23.242Z,64.19
2022-10-04T11:44:59.913Z,64.10
2022-10-04T11:50:22.653Z,63.07
2022-10-04T11:55:57.215Z,62.49
2022-10-04T12:01:39.356Z,62.60
2022-10-04T12:07:01.767Z,63.12
2022-10-04T12:12:40.153Z,63.14
2022-10-04T12:18:18.694Z,64.06
2022-10-04T12:23:59.012Z,63.59
2022-10-04T12:29:31.280Z,63.64
2022-10-04T12:35:02.940Z,63.24
2022-10-04T12:40:42.911Z,63.42
2022-10-04T12:46:04.033Z,63.65
2022-10-04T12:51:53.869Z,64.19
2022-10-04T12:57:47.409Z,64.32
2022-10-04T13:03:34.232Z,63.65
2022-10-04T13:08:51.068Z,63.75
2022-10-04T13:14:19.965Z,63.97
2022-10-04T13:19:36.368Z,64.66
2022-10-04T13:24:58.285Z,64.57
2022-10-04T13:30:23.024Z,63.37
2022-10-04T13:35:46.968Z,63.77
2022-10-04T13:41:15.285Z,63.99
2022-10-04T13:46:48.097Z,64.62
2022-10-04T13:52:33.428Z,64.93
2022-10-04T13:58:14.366Z,64.27
2022-10-04T14:03:38.704Z,64.29
2022-10-04T14:09:11.580Z,64.08
2022-10-04T14:14:40.177Z,64.13
2022-10-04T14:20:24.688Z,64.05
2022-10-04T14:25:56.084Z,64.07
2022-10-04T14:31:52.888Z,64.03
2022-10-04T14:38:01.949Z,63.96
2022-10-04T14:43:20.327Z,63.61
2022-10-04T14:48:38.256Z,63.26
2022-10-04T14:54:00.683Z,63.54
2022-10-04T14:59:15.600Z,63.43
2022-10-04T15:04:57.463Z,62.99
2022-10-04T15:10:19.216Z,62.49
2022-10-04T15:15:37.091Z,63.06
2022-10-04T15:20:57.452Z,63.49
2022-10-04T15:26:21.232Z,63.65
2022-10-04T15:32:20.902Z,63.20
2022-10-04T15:37:30.096Z,63.01
2022-10-04T15:42:53.745Z,62.73
2022-10-04T15:48:21.324Z,63.24
2022-10-04T15:54:14.890Z,63.51
2022-10-04T16:00:16.048Z,63.39
2022-10-04T16:05:25.978Z,63.37
2022-10-04T16:11:14.074Z,63.71
2022-10-04T16:16:26.326Z,63.90
2022-10-04T16:21:42.582Z,63.98
2022-10-04T16:26:50.625Z,64.23
2022-10-04T16:32:10.944Z,64.38
2022-10-04T16:37:55.812Z,64.34
2022-10-04T16:43:10.947Z,64.49
2022-10-04T16:48:59.025Z,64.47
2022-10-04T16:54:48.834Z,64.12
2022-10-04T17:00:00.691Z,64.14
2022-10-04T17:05:34.879Z,63.97
2022-10-04T17:10:40.231Z,63.83
2022-10-04T17:16:19.629Z,63.70
2022-10-04T17:21:34.552Z,63.71
2022-10-04T17:27:13.823Z,63.53
2022-10-04T17:32:45.823Z,63.88
2022-10-04T17:38:02.750Z,64.17
2022-10-04T17:43:47.095Z,64.24
2022-10-04T17:49:30.933Z,64.58
2022-10-04T17:55:05.207Z,64.61
2022-10-04T18:00:45.428Z,64.51
2022-10-04T18:06:32.006Z,64.68
2022-10-04T18:11:47.396Z,64.80
2022-10-04T18:16:56.951Z,64.85
2022-10-04T18:22:15.916Z,65.23
2022-10-04T18:27:25.292Z,65.54
2022-10-04T18:32:28.094Z,65.73
2022-10-04T18:37:39.371Z,65.98
2022-10-04T18:42:58.349Z,66.08
2022-10-04T18:48:14.798Z,66.30
2022-10-04T18:53:53.118Z,66.50
2022-10-04T18:59:17.551Z,66.58
2022-10-04T19:04:49.947Z,66.58
2022-10-04T19:10:35.968Z,66.94
2022-10-04T19:16:00.046Z,67.41
2022-10-04T19:21:47.590Z,67.48
2022-10-04T19:27:02.909Z,67.63
2022-10-04T19:32:44.522Z,67.59
2022-10-04T19:37:53.304Z,67.58
2022-10-04T19:43:13.258Z,67.59
2022-10-04T19:48:25.771Z,67.62
2022-10-04T19:53:45.362Z,67.46
2022-10-04T19:58:52.669Z,67.75
2022-10-04T20:04:15.196Z,68.09
2022-10-04T20:09:31.758Z,68.18
2022-10-04T20:14:34.531Z,68.44
2022-10-04T20:19:41.048Z,68.14
2022-10-04T20:24:47.199Z,68.31
2022-10-04T20:29:51.769Z,68.34
2022-10-04T20:34:59.496Z,68.34
2022-10-04T20:40:02.454Z,68.39
2022-10-04T20:45:11.353Z,68.48
2022-10-04T20:50:40.948Z,68.57
2022-10-04T20:55:46.378Z,68.64
2022-10-04T21:00:56.245Z,68.48
2022-10-04T21:06:08.283Z,68.44
2022-10-04T21:11:21.379Z,68.24
2022-10-04T21:16:40.224Z,68.50
2022-10-04T21:21:51.254Z,68.68
2022-10-04T21:26:58.211Z,68.56
2022-10-04T21:32:01.995Z,68.44
2022-10-04T21:37:04.939Z,68.17
2022-10-04T21:42:07.835Z,68.27
2022-10-04T21:47:10.949Z,68.48
2022-10-04T21:52:13.898Z,68.55
2022-10-04T21:57:16.755Z,68.67
2022-10-04T22:02:19.649Z,68.84
2022-10-04T22:07:22.507Z,68.51
2022-10-04T22:12:25.397Z,68.69
2022-10-04T22:17:28.238Z,68.59
2022-10-04T22:22:32.716Z,68.85
2022-10-04T22:27:38.819Z,69.02
2022-10-04T22:32:41.704Z,69.07
2022-10-04T22:37:46.530Z,68.78
2022-10-04T22:42:53.133Z,68.89
2022-10-04T22:47:59.662Z,68.89
2022-10-04T22:53:24.007Z,68.71
2022-10-04T22:58:27.053Z,68.94
2022-10-04T23:03:34.574Z,68.99
2022-10-04T23:08:37.440Z,69.10
2022-10-04T23:13:40.383Z,69.01
2022-10-04T23:18:43.261Z,68.85
2022-10-04T23:23:47.499Z,68.85
2022-10-04T23:28:51.877Z,68.93
2022-10-04T23:33:57.096Z,69.03
2022-10-04T23:39:01.787Z,68.99
2022-10-04T23:44:13.606Z,69.16
2022-10-04T23:49:18.792Z,69.33
2022-10-04T23:54:21.677Z,69.36
2022-10-04T23:59:26.523Z,69.27
